createdAt,value
2022-11-12T00:00:56.558Z,4.38
2022-11-12T00:03:22.962Z,4.43
2022-11-12T00:05:50.716Z,4.28
2022-11-12T00:08:17.794Z,4.40
2022-11-12T00:10:45.019Z,4.33
2022-11-12T00:13:11.584Z,4.43
2022-11-12T00:15:38.341Z,4.30
2022-11-12T00:18:04.914Z,4.37
2022-11-12T00:20:31.321Z,4.38
2022-11-12T00:22:57.734Z,4.34
2022-11-12T00:25:24.711Z,4.27
2022-11-12T00:27:51.405Z,4.18
2022-11-12T00:30:18.057Z,4.28
2022-11-12T00:32:44.499Z,4.42
2022-11-12T00:35:14.024Z,4.14
2022-11-12T00:37:40.992Z,4.25
2022-11-12T00:40:08.444Z,4.31
2022-11-12T00:42:34.977Z,4.19
2022-11-12T00:45:01.717Z,4.23
2022-11-12T00:47:28.151Z,4.20
2022-11-12T00:49:54.578Z,4.14
2022-11-12T00:52:21.009Z,4.05
2022-11-12T00:54:47.516Z,4.16
2022-11-12T00:57:13.928Z,3.88
2022-11-12T00:59:40.309Z,3.94
2022-11-12T01:02:06.862Z,4.13
2022-11-12T01:04:33.354Z,4.14
2022-11-12T01:06:59.795Z,4.15
2022-11-12T01:09:26.348Z,4.01
2022-11-12T01:11:52.776Z,4.28
2022-11-12T01:14:19.236Z,4.19
2022-11-12T01:16:45.720Z,4.14
2022-11-12T01:19:13.660Z,3.88
2022-11-12T01:21:43.033Z,3.81
2022-11-12T01:24:14.240Z,3.80
2022-11-12T01:26:40.723Z,3.77
2022-11-12T01:29:07.293Z,4.09
2022-11-12T01:31:35.893Z,4.01
2022-11-12T01:34:05.384Z,3.99
2022-11-12T01:36:37.491Z,3.56
2022-11-12T01:39:08.263Z,3.71
2022-11-12T01:41:37.392Z,3.75
2022-11-12T01:44:20.884Z,3.90
2022-11-12T01:46:55.105Z,3.59
2022-11-12T01:49:32.998Z,3.67
2022-11-12T01:52:10.658Z,3.65
2022-11-12T01:54:38.417Z,3.58
2022-11-12T01:57:05.525Z,3.72
2022-11-12T01:59:38.213Z,3.66
2022-11-12T02:02:05.284Z,3.89
2022-11-12T02:04:33.510Z,3.99
2022-11-12T02:07:00.997Z,3.74
2022-11-12T02:09:28.106Z,3.87
2022-11-12T02:11:54.607Z,3.88
2022-11-12T02:14:21.617Z,3.81
2022-11-12T02:16:48.816Z,3.87
2022-11-12T02:19:16.986Z,4.00
2022-11-12T02:21:43.798Z,3.91
2022-11-12T02:24:13.361Z,3.87
2022-11-12T02:26:52.037Z,3.93
2022-11-12T02:29:18.679Z,3.99
2022-11-12T02:31:45.095Z,3.84
2022-11-12T02:34:11.549Z,3.92
2022-11-12T02:36:38.148Z,3.81
2022-11-12T02:46:24.057Z,3.46
2022-11-12T02:48:50.454Z,3.42
2022-11-12T02:51:16.904Z,3.76
2022-11-12T02:53:43.279Z,3.65
2022-11-12T02:56:09.641Z,3.67
2022-11-12T02:58:36.180Z,3.64
2022-11-12T03:01:02.721Z,3.58
2022-11-12T03:03:29.203Z,3.67
2022-11-12T03:06:01.153Z,3.77
2022-11-12T03:08:28.611Z,3.57
2022-11-12T03:10:56.478Z,3.73
2022-11-12T03:13:22.917Z,3.53
2022-11-12T03:15:49.361Z,3.60
2022-11-12T03:18:15.967Z,3.58
2022-11-12T03:20:42.367Z,3.51
2022-11-12T03:23:11.060Z,3.43
2022-11-12T03:25:38.308Z,3.53
2022-11-12T03:28:11.167Z,3.52
2022-11-12T03:30:39.738Z,3.22
2022-11-12T03:33:07.616Z,3.34
2022-11-12T03:35:34.570Z,3.33
2022-11-12T03:38:02.031Z,3.22
2022-11-12T03:40:29.259Z,3.13
2022-11-12T03:42:56.019Z,2.99
2022-11-12T03:45:25.417Z,2.93
2022-11-12T03:47:54.782Z,2.85
2022-11-12T03:50:26.902Z,2.93
2022-11-12T03:52:56.353Z,2.82
2022-11-12T03:55:24.426Z,2.84
2022-11-12T03:57:52.669Z,2.84
2022-11-12T04:00:20.628Z,2.75
2022-11-12T04:02:47.584Z,2.90
2022-11-12T04:05:33.426Z,2.97
2022-11-12T04:08:24.878Z,3.00
2022-11-12T04:10:52.231Z,2.99
2022-11-12T04:13:27.646Z,2.99
2022-11-12T04:16:23.320Z,2.97
2022-11-12T04:19:10.625Z,2.97
2022-11-12T04:21:56.047Z,3.08
2022-11-12T04:24:49.254Z,3.01
2022-11-12T04:27:19.665Z,3.02
2022-11-12T04:30:05.881Z,3.16
2022-11-12T04:32:34.785Z,3.20
2022-11-12T04:35:01.587Z,3.13
2022-11-12T04:37:44.131Z,3.37
2022-11-12T04:40:40.537Z,3.30
2022-11-12T04:43:28.403Z,3.12
2022-11-12T04:45:55.310Z,3.05
2022-11-12T04:48:23.150Z,3.08
2022-11-12T04:50:53.951Z,3.17
2022-11-12T04:53:20.650Z,3.04
2022-11-12T04:55:53.350Z,2.84
2022-11-12T04:58:21.274Z,2.89
2022-11-12T05:00:49.142Z,3.04
2022-11-12T05:03:16.549Z,3.13
2022-11-12T05:05:43.076Z,3.28
2022-11-12T05:08:09.455Z,3.17
2022-11-12T05:10:35.848Z,3.35
2022-11-12T05:13:02.256Z,3.19
2022-11-12T05:15:28.735Z,3.27
2022-11-12T05:17:55.194Z,3.36
2022-11-12T05:20:21.610Z,3.39
2022-11-12T05:23:04.499Z,3.43
2022-11-12T05:25:32.498Z,3.38
2022-11-12T05:27:59.346Z,3.53
2022-11-12T05:30:25.790Z,3.29
2022-11-12T05:32:52.253Z,3.18
2022-11-12T05:35:18.788Z,3.11
2022-11-12T05:37:45.222Z,3.00
2022-11-12T05:40:12.351Z,2.85
2022-11-12T05:42:39.030Z,2.99
2022-11-12T05:45:06.199Z,3.42
2022-11-12T05:47:32.651Z,3.23
2022-11-12T05:49:59.184Z,3.18
2022-11-12T05:52:25.562Z,3.32
2022-11-12T05:54:52.078Z,3.36
2022-11-12T05:57:18.488Z,3.23
2022-11-12T05:59:44.862Z,3.33
2022-11-12T06:02:11.323Z,3.22
2022-11-12T06:04:37.926Z,3.31
2022-11-12T06:07:04.421Z,3.30
2022-11-12T06:09:30.942Z,3.32
2022-11-12T06:11:57.449Z,3.41
2022-11-12T06:14:23.854Z,3.52
2022-11-12T06:16:50.345Z,3.38
2022-11-12T06:19:16.769Z,3.46
2022-11-12T06:21:43.183Z,3.35
2022-11-12T06:24:10.129Z,3.48
2022-11-12T06:26:38.002Z,3.52
2022-11-12T06:29:04.536Z,3.14
2022-11-12T06:31:31.060Z,3.36
2022-11-12T06:33:57.540Z,3.06
2022-11-12T06:36:24.523Z,3.27
2022-11-12T06:38:50.895Z,3.34
2022-11-12T06:41:17.442Z,3.49
2022-11-12T06:43:43.872Z,3.58
2022-11-12T06:46:15.016Z,3.42
2022-11-12T06:48:41.936Z,3.44
2022-11-12T06:51:11.603Z,3.52
2022-11-12T06:53:38.199Z,3.56
2022-11-12T06:56:06.637Z,3.33
2022-11-12T06:58:33.104Z,3.54
2022-11-12T07:01:10.991Z,3.51
2022-11-12T07:03:38.756Z,3.34
2022-11-12T07:06:15.480Z,3.57
2022-11-12T07:08:42.078Z,3.51
2022-11-12T07:11:08.656Z,3.81
2022-11-12T07:13:35.827Z,3.69
2022-11-12T07:16:03.743Z,3.73
2022-11-12T07:18:31.245Z,3.91
2022-11-12T07:21:02.332Z,3.39
2022-11-12T07:23:30.916Z,3.61
2022-11-12T07:26:08.530Z,3.72
2022-11-12T07:28:34.912Z,3.78
2022-11-12T07:31:06.452Z,3.60
2022-11-12T07:33:33.922Z,3.58
2022-11-12T07:36:02.466Z,3.58
2022-11-12T07:38:30.880Z,3.88
2022-11-12T07:41:05.618Z,3.72
2022-11-12T07:43:33.866Z,3.74
2022-11-12T07:46:06.092Z,3.92
2022-11-12T07:48:35.597Z,3.92
2022-11-12T07:51:07.261Z,3.79
2022-11-12T07:53:34.259Z,3.86
2022-11-12T07:56:02.012Z,4.08
2022-11-12T07:58:31.419Z,3.79
2022-11-12T08:00:58.600Z,4.20
2022-11-12T08:03:25.856Z,4.35
2022-11-12T08:05:52.230Z,3.89
2022-11-12T08:08:18.608Z,3.83
2022-11-12T08:10:44.991Z,3.76
2022-11-12T08:13:11.526Z,3.58
2022-11-12T08:15:37.932Z,3.50
2022-11-12T08:18:04.453Z,3.75
2022-11-12T08:20:30.927Z,4.14
2022-11-12T08:23:00.418Z,3.70
2022-11-12T08:25:27.165Z,3.83
2022-11-12T08:27:57.050Z,3.94
2022-11-12T08:30:23.569Z,4.00
2022-11-12T08:32:59.646Z,4.02
2022-11-12T08:35:28.176Z,4.16
2022-11-12T08:38:02.601Z,4.60
2022-11-12T08:40:31.665Z,4.63
2022-11-12T08:43:00.280Z,4.40
2022-11-12T08:45:27.962Z,4.66
2022-11-12T08:48:02.622Z,4.50
2022-11-12T08:50:30.036Z,4.67
2022-11-12T08:53:04.976Z,4.83
2022-11-12T08:55:35.697Z,5.10
2022-11-12T08:58:03.764Z,5.49
2022-11-12T09:00:31.131Z,5.26
2022-11-12T09:03:00.342Z,5.25
2022-11-12T09:05:26.893Z,5.45
2022-11-12T09:08:00.842Z,5.53
2022-11-12T09:10:28.154Z,5.59
2022-11-12T09:12:54.739Z,5.74
2022-11-12T09:15:36.993Z,5.70
2022-11-12T09:18:08.004Z,5.77
2022-11-12T09:20:34.537Z,5.59
2022-11-12T09:23:03.098Z,5.69
2022-11-12T09:25:29.635Z,5.24
2022-11-12T09:27:56.054Z,5.77
2022-11-12T09:30:23.231Z,5.68
2022-11-12T09:32:49.741Z,5.89
2022-11-12T09:35:16.160Z,5.67
2022-11-12T09:37:42.590Z,5.38
2022-11-12T09:40:18.139Z,4.99
2022-11-12T09:42:49.877Z,5.46
2022-11-12T09:45:30.183Z,6.06
2022-11-12T09:48:01.973Z,6.48
2022-11-12T09:50:36.717Z,6.89
2022-11-12T09:53:11.972Z,7.27
2022-11-12T09:55:42.045Z,7.15
2022-11-12T09:58:17.289Z,7.60
2022-11-12T10:00:55.141Z,7.49
2022-11-12T10:03:49.072Z,8.02
2022-11-12T10:06:19.516Z,8.02
2022-11-12T10:09:04.104Z,8.20
2022-11-12T10:12:18.088Z,8.76
2022-11-12T10:15:30.099Z,8.94
2022-11-12T10:18:29.002Z,10.52
2022-11-12T10:21:01.782Z,9.57
2022-11-12T10:23:45.196Z,9.60
2022-11-12T10:26:14.652Z,11.29
2022-11-12T10:28:49.912Z,11.37
2022-11-12T10:31:19.266Z,10.84
2022-11-12T10:33:46.211Z,12.49
2022-11-12T10:36:23.769Z,12.30
2022-11-12T10:38:53.615Z,12.44
2022-11-12T10:41:25.605Z,12.53
2022-11-12T10:44:03.739Z,12.43
2022-11-12T10:46:33.257Z,12.31
2022-11-12T10:49:04.485Z,12.23
2022-11-12T10:51:36.148Z,11.78
2022-11-12T10:54:26.650Z,12.36
2022-11-12T10:56:55.654Z,12.97
2022-11-12T10:59:23.936Z,13.06
2022-11-12T11:01:58.677Z,12.94
2022-11-12T11:04:31.611Z,13.09
2022-11-12T11:07:15.052Z,13.20
2022-11-12T11:10:00.245Z,13.42
2022-11-12T11:12:34.805Z,13.82
2022-11-12T11:15:19.396Z,13.42
2022-11-12T11:17:46.193Z,13.52
2022-11-12T11:20:25.947Z,13.98
2022-11-12T11:22:56.288Z,14.28
2022-11-12T11:25:28.435Z,14.04
2022-11-12T11:28:04.868Z,13.93
2022-11-12T11:30:31.648Z,14.22
2022-11-12T11:33:09.350Z,13.36
2022-11-12T11:35:54.494Z,13.94
2022-11-12T11:38:44.538Z,14.22
2022-11-12T11:41:19.819Z,13.98
2022-11-12T11:44:12.769Z,14.35
2022-11-12T11:46:47.552Z,14.38
2022-11-12T11:49:25.114Z,14.64
2022-11-12T11:52:00.615Z,13.86
2022-11-12T11:54:39.608Z,13.68
2022-11-12T11:57:22.662Z,14.03
2022-11-12T12:00:07.423Z,13.95
2022-11-12T12:03:16.700Z,13.87
2022-11-12T12:05:51.882Z,13.65
2022-11-12T12:08:42.815Z,13.49
2022-11-12T12:11:17.486Z,13.21
2022-11-12T12:13:54.442Z,13.06
2022-11-12T12:16:33.620Z,13.07
2022-11-12T12:19:32.535Z,13.73
2022-11-12T12:22:01.088Z,13.58
2022-11-12T12:24:32.999Z,13.51
2022-11-12T12:27:14.032Z,13.80
2022-11-12T12:29:47.590Z,13.50
2022-11-12T12:32:24.009Z,13.38
2022-11-12T12:35:21.767Z,13.27
2022-11-12T12:38:02.850Z,13.72
2022-11-12T12:40:35.465Z,13.59
2022-11-12T12:43:41.351Z,13.68
2022-11-12T12:46:12.191Z,13.56
2022-11-12T12:48:42.768Z,12.96
2022-11-12T12:51:09.656Z,13.43
2022-11-12T12:53:36.944Z,13.82
2022-11-12T12:56:27.543Z,13.84
2022-11-12T12:58:55.278Z,13.63
2022-11-12T13:01:21.838Z,14.15
2022-11-12T13:03:58.630Z,14.30
2022-11-12T13:06:27.542Z,14.13
2022-11-12T13:09:12.293Z,14.13
2022-11-12T13:12:05.213Z,14.54
2022-11-12T13:14:31.675Z,14.12
2022-11-12T13:17:00.210Z,14.19
2022-11-12T13:19:45.172Z,13.62
2022-11-12T13:22:17.837Z,13.24
2022-11-12T13:25:12.523Z,13.76
2022-11-12T13:27:45.328Z,14.11
2022-11-12T13:30:14.379Z,13.52
2022-11-12T13:32:42.059Z,13.22
2022-11-12T13:35:17.549Z,13.62
2022-11-12T13:37:57.020Z,13.53
2022-11-12T13:40:33.423Z,13.38
2022-11-12T13:43:15.255Z,13.06
2022-11-12T13:45:48.191Z,12.70
2022-11-12T13:48:45.916Z,12.76
2022-11-12T13:51:29.547Z,12.99
2022-11-12T13:53:55.911Z,13.07
2022-11-12T13:56:31.225Z,12.98
2022-11-12T13:59:17.541Z,12.81
2022-11-12T14:01:45.563Z,12.76
2022-11-12T14:04:15.281Z,12.65
2022-11-12T14:07:09.755Z,12.92
2022-11-12T14:09:56.467Z,12.83
2022-11-12T14:13:04.029Z,12.96
2022-11-12T14:16:00.728Z,12.89
2022-11-12T14:18:44.538Z,12.67
2022-11-12T14:21:18.153Z,12.44
2022-11-12T14:23:46.904Z,12.52
2022-11-12T14:26:14.776Z,12.35
2022-11-12T14:28:41.320Z,12.18
2022-11-12T14:31:13.663Z,12.03
2022-11-12T14:33:40.278Z,12.13
2022-11-12T14:36:13.365Z,11.95
2022-11-12T14:38:44.350Z,11.84
2022-11-12T14:41:20.429Z,11.78
2022-11-12T14:44:11.152Z,11.76
2022-11-12T14:46:50.592Z,11.59
2022-11-12T14:49:40.688Z,11.57
2022-11-12T14:52:22.669Z,11.68
2022-11-12T14:54:54.867Z,11.45
2022-11-12T14:57:27.598Z,11.29
2022-11-12T14:59:54.607Z,11.42
2022-11-12T15:02:52.265Z,11.28
2022-11-12T15:05:20.882Z,11.17
2022-11-12T15:08:02.325Z,10.83
2022-11-12T15:10:43.922Z,10.62
2022-11-12T15:13:15.613Z,10.46
2022-11-12T15:15:52.588Z,10.43
2022-11-12T15:18:23.374Z,10.21
2022-11-12T15:21:19.347Z,10.25
2022-11-12T15:23:57.230Z,10.10
2022-11-12T15:26:35.489Z,10.09
2022-11-12T15:29:04.075Z,10.04
2022-11-12T15:31:30.553Z,9.98
2022-11-12T15:34:24.502Z,9.59
2022-11-12T15:36:51.229Z,9.52
2022-11-12T15:39:18.237Z,9.46
2022-11-12T15:41:44.761Z,9.36
2022-11-12T15:44:12.305Z,9.19
2022-11-12T15:46:39.140Z,9.26
2022-11-12T15:49:12.833Z,8.99
2022-11-12T15:51:39.245Z,9.04
2022-11-12T15:54:05.682Z,8.84
2022-11-12T15:56:32.367Z,8.69
2022-11-12T15:58:58.854Z,8.65
2022-11-12T16:01:25.358Z,8.53
2022-11-12T16:03:51.806Z,8.57
2022-11-12T16:06:18.179Z,8.46
2022-11-12T16:08:44.630Z,8.31
2022-11-12T16:11:31.600Z,8.30
2022-11-12T16:13:58.133Z,8.08
2022-11-12T16:16:24.707Z,8.08
2022-11-12T16:18:51.221Z,7.99
2022-11-12T16:21:20.848Z,7.96
2022-11-12T16:23:47.639Z,7.84
2022-11-12T16:26:18.068Z,7.66
2022-11-12T16:28:44.859Z,7.66
2022-11-12T16:31:11.256Z,7.61
2022-11-12T16:33:37.665Z,7.60
2022-11-12T16:36:13.482Z,7.59
2022-11-12T16:38:39.887Z,7.51
2022-11-12T16:41:09.234Z,7.53
2022-11-12T16:43:35.655Z,7.41
2022-11-12T16:46:02.073Z,7.38
2022-11-12T16:48:28.693Z,7.38
2022-11-12T16:50:58.771Z,7.29
2022-11-12T16:53:25.587Z,7.24
2022-11-12T16:55:52.256Z,7.21
2022-11-12T16:58:18.630Z,7.08
2022-11-12T17:00:46.616Z,7.18
2022-11-12T17:03:13.949Z,7.08
2022-11-12T17:05:40.371Z,7.11
2022-11-12T17:08:07.997Z,6.90
2022-11-12T17:10:34.470Z,7.00
2022-11-12T17:13:00.913Z,7.00
2022-11-12T17:15:27.362Z,7.03
2022-11-12T17:17:54.188Z,6.92
2022-11-12T17:20:20.619Z,6.76
2022-11-12T17:22:47.117Z,6.70
2022-11-12T17:25:13.555Z,6.59
2022-11-12T17:27:39.947Z,6.55
2022-11-12T17:30:06.869Z,6.52
2022-11-12T17:32:33.269Z,6.42
2022-11-12T17:34:59.666Z,6.54
2022-11-12T17:37:26.063Z,6.39
2022-11-12T17:39:52.962Z,6.56
2022-11-12T17:42:19.454Z,6.60
2022-11-12T17:44:46.426Z,6.54
2022-11-12T17:47:13.178Z,6.69
2022-11-12T17:49:39.758Z,6.64
2022-11-12T17:52:06.176Z,6.31
2022-11-12T17:54:32.648Z,6.13
2022-11-12T17:56:59.174Z,6.10
2022-11-12T17:59:25.579Z,6.04
2022-11-12T18:01:52.069Z,6.06
2022-11-12T18:04:18.466Z,5.94
2022-11-12T18:06:44.916Z,5.87
2022-11-12T18:09:16.251Z,5.84
2022-11-12T18:11:54.315Z,5.56
2022-11-12T18:14:22.621Z,5.85
2022-11-12T18:16:49.221Z,5.81
2022-11-12T18:19:16.944Z,5.65
2022-11-12T18:21:43.308Z,5.64
2022-11-12T18:24:15.003Z,5.62
2022-11-12T18:26:41.804Z,5.57
2022-11-12T18:29:08.312Z,5.54
2022-11-12T18:31:34.736Z,5.56
2022-11-12T18:34:01.350Z,5.38
2022-11-12T18:36:28.511Z,5.26
2022-11-12T18:38:55.840Z,5.33
2022-11-12T18:41:25.930Z,5.32
2022-11-12T18:43:53.579Z,5.19
2022-11-12T18:46:20.428Z,5.24
2022-11-12T18:48:47.485Z,5.20
2022-11-12T18:51:15.766Z,5.36
2022-11-12T18:53:43.091Z,5.37
2022-11-12T18:56:15.372Z,5.53
2022-11-12T18:58:42.047Z,5.53
2022-11-12T19:01:15.721Z,5.61
2022-11-12T19:03:43.215Z,5.58
2022-11-12T19:06:12.361Z,5.47
2022-11-12T19:08:38.955Z,5.34
2022-11-12T19:11:10.656Z,5.14
2022-11-12T19:13:37.748Z,5.07
2022-11-12T19:16:17.016Z,5.01
2022-11-12T19:18:45.145Z,4.82
2022-11-12T19:21:25.598Z,4.87
2022-11-12T19:23:56.030Z,4.97
2022-11-12T19:26:23.246Z,5.04
2022-11-12T19:28:49.852Z,5.00
2022-11-12T19:31:24.106Z,4.89
2022-11-12T19:33:51.038Z,4.95
2022-11-12T19:36:22.831Z,4.78
2022-11-12T19:39:00.057Z,4.81
2022-11-12T19:41:26.498Z,4.69
2022-11-12T19:43:53.174Z,4.64
2022-11-12T19:46:20.527Z,4.67
2022-11-12T19:48:47.070Z,4.75
2022-11-12T19:51:13.872Z,4.77
2022-11-12T19:53:46.614Z,4.68
2022-11-12T19:56:21.518Z,4.67
2022-11-12T19:58:48.885Z,4.66
2022-11-12T20:01:17.696Z,4.51
2022-11-12T20:03:44.555Z,4.55
2022-11-12T20:06:16.895Z,4.58
2022-11-12T20:08:43.358Z,4.56
2022-11-12T20:11:10.255Z,4.37
2022-11-12T20:13:37.123Z,4.48
2022-11-12T20:16:13.240Z,4.47
2022-11-12T20:18:39.812Z,4.48
2022-11-12T20:21:06.344Z,4.53
2022-11-12T20:23:36.126Z,4.50
2022-11-12T20:26:08.420Z,4.44
2022-11-12T20:28:36.360Z,4.46
2022-11-12T20:31:05.539Z,4.53
2022-11-12T20:33:32.148Z,4.53
2022-11-12T20:36:09.527Z,4.52
2022-11-12T20:38:37.843Z,4.50
2022-11-12T20:41:06.345Z,4.41
2022-11-12T20:43:34.006Z,4.45
2022-11-12T20:46:01.199Z,4.51
2022-11-12T20:48:28.473Z,4.40
2022-11-12T20:51:32.959Z,4.27
2022-11-12T20:54:00.824Z,4.16
2022-11-12T20:56:29.165Z,4.10
2022-11-12T20:58:56.519Z,4.11
2022-11-12T21:01:24.719Z,4.22
2022-11-12T21:03:51.709Z,4.18
2022-11-12T21:06:20.456Z,4.05
2022-11-12T21:08:47.232Z,4.10
2022-11-12T21:11:15.919Z,4.02
2022-11-12T21:13:42.956Z,4.07
2022-11-12T21:16:11.013Z,3.91
2022-11-12T21:18:38.591Z,4.04
2022-11-12T21:21:13.676Z,4.06
2022-11-12T21:23:45.824Z,4.02
2022-11-12T21:26:20.667Z,3.94
2022-11-12T21:28:54.733Z,3.95
2022-11-12T21:31:26.154Z,3.89
2022-11-12T21:33:54.703Z,4.05
2022-11-12T21:36:22.176Z,3.84
2022-11-12T21:38:49.364Z,3.94
2022-11-12T21:41:18.479Z,3.80
2022-11-12T21:43:45.702Z,3.78
2022-11-12T21:46:15.359Z,3.72
2022-11-12T21:48:42.431Z,3.77
2022-11-12T21:51:14.234Z,3.77
2022-11-12T21:53:43.115Z,3.80
2022-11-12T21:56:13.467Z,3.85
2022-11-12T21:58:40.274Z,4.01
2022-11-12T22:01:17.550Z,4.00
2022-11-12T22:03:44.834Z,3.94
2022-11-12T22:06:11.962Z,3.94
2022-11-12T22:08:38.981Z,3.74
2022-11-12T22:11:07.569Z,3.69
2022-11-12T22:13:34.973Z,3.72
2022-11-12T22:16:12.440Z,3.58
2022-11-12T22:18:39.575Z,3.85
2022-11-12T22:21:09.941Z,3.99
2022-11-12T22:23:36.576Z,3.59
2022-11-12T22:26:10.012Z,3.74
2022-11-12T22:28:37.931Z,3.60
2022-11-12T22:31:11.172Z,3.55
2022-11-12T22:33:38.224Z,3.65
2022-11-12T22:36:10.647Z,3.83
2022-11-12T22:38:39.000Z,3.82
2022-11-12T22:41:13.627Z,3.77
2022-11-12T22:43:40.554Z,3.88
2022-11-12T22:46:10.877Z,3.67
2022-11-12T22:48:38.019Z,3.77
2022-11-12T22:51:07.109Z,3.73
2022-11-12T22:53:33.745Z,3.62
2022-11-12T22:56:08.640Z,3.87
2022-11-12T22:58:39.158Z,3.53
2022-11-12T23:01:07.367Z,3.52
2022-11-12T23:03:34.712Z,3.53
2022-11-12T23:06:03.449Z,3.64
2022-11-12T23:08:31.251Z,3.40
2022-11-12T23:11:01.561Z,3.59
2022-11-12T23:13:28.086Z,3.68
2022-11-12T23:15:54.568Z,3.53
2022-11-12T23:18:20.989Z,3.63
2022-11-12T23:20:47.369Z,3.55
2022-11-12T23:23:13.753Z,3.71
2022-11-12T23:25:40.181Z,3.63
2022-11-12T23:28:09.764Z,3.43
2022-11-12T23:30:37.427Z,3.26
2022-11-12T23:33:03.886Z,3.45
2022-11-12T23:35:30.498Z,3.55
2022-11-12T23:37:56.933Z,3.32
2022-11-12T23:40:27.179Z,3.56
2022-11-12T23:42:57.088Z,3.36
2022-11-12T23:45:23.508Z,3.31
2022-11-12T23:47:49.878Z,3.45
2022-11-12T23:50:16.521Z,3.51
2022-11-12T23:52:42.909Z,3.50
2022-11-12T23:55:09.418Z,3.37
2022-11-12T23:57:36.105Z,3.51
